sensor_id;sensor_type;location;lat;lon;timestamp;pressure;altitude;pressure_sealevel;temperature;humidity
64853;BME280;56050;55.558;-4.644;2023-02-18T00:00:20;101120.31;;;8.79;70.78
64853;BME280;56050;55.558;-4.644;2023-02-18T00:02:48;101114.59;;;8.80;70.85
64853;BME280;56050;55.558;-4.644;2023-02-18T00:05:14;101115.41;;;8.84;70.66
64853;BME280;56050;55.558;-4.644;2023-02-18T00:07:40;101105.91;;;8.91;70.57
64853;BME280;56050;55.558;-4.644;2023-02-18T00:10:10;101111.00;;;8.99;70.39
64853;BME280;56050;55.558;-4.644;2023-02-18T00:12:36;101101.88;;;9.07;70.22
64853;BME280;56050;55.558;-4.644;2023-02-18T00:15:01;101092.34;;;9.13;70.13
64853;BME280;56050;55.558;-4.644;2023-02-18T00:17:28;101095.09;;;9.20;69.90
64853;BME280;56050;55.558;-4.644;2023-02-18T00:19:54;101081.34;;;9.25;70.08
64853;BME280;56050;55.558;-4.644;2023-02-18T00:22:21;101082.94;;;9.30;69.97
64853;BME280;56050;55.558;-4.644;2023-02-18T00:24:47;101069.94;;;9.35;70.04
64853;BME280;56050;55.558;-4.644;2023-02-18T00:27:13;101068.88;;;9.43;70.19
64853;BME280;56050;55.558;-4.644;2023-02-18T00:29:38;101058.22;;;9.54;70.17
64853;BME280;56050;55.558;-4.644;2023-02-18T00:32:04;101049.84;;;9.63;70.28
64853;BME280;56050;55.558;-4.644;2023-02-18T00:34:29;101051.09;;;9.76;70.57
64853;BME280;56050;55.558;-4.644;2023-02-18T00:36:55;101045.00;;;9.86;70.71
64853;BME280;56050;55.558;-4.644;2023-02-18T00:39:20;101035.50;;;9.99;70.68
64853;BME280;56050;55.558;-4.644;2023-02-18T00:41:45;101018.66;;;10.09;70.77
64853;BME280;56050;55.558;-4.644;2023-02-18T00:44:11;101021.06;;;10.21;70.88
64853;BME280;56050;55.558;-4.644;2023-02-18T00:46:37;101009.97;;;10.30;71.08
64853;BME280;56050;55.558;-4.644;2023-02-18T00:49:03;101012.69;;;10.37;70.86
64853;BME280;56050;55.558;-4.644;2023-02-18T00:51:29;100999.66;;;10.46;70.80
64853;BME280;56050;55.558;-4.644;2023-02-18T00:53:54;101000.84;;;10.52;70.94
64853;BME280;56050;55.558;-4.644;2023-02-18T00:56:20;101001.25;;;10.57;71.34
64853;BME280;56050;55.558;-4.644;2023-02-18T00:58:45;100991.25;;;10.61;71.14
64853;BME280;56050;55.558;-4.644;2023-02-18T01:01:11;100997.03;;;10.63;71.26
64853;BME280;56050;55.558;-4.644;2023-02-18T01:03:39;100988.19;;;10.67;71.23
64853;BME280;56050;55.558;-4.644;2023-02-18T01:06:05;100990.91;;;10.70;71.79
64853;BME280;56050;55.558;-4.644;2023-02-18T01:08:31;100983.97;;;10.73;71.56
64853;BME280;56050;55.558;-4.644;2023-02-18T01:10:58;100984.38;;;10.75;71.73
64853;BME280;56050;55.558;-4.644;2023-02-18T01:13:24;100977.84;;;10.79;71.90
64853;BME280;56050;55.558;-4.644;2023-02-18T01:15:50;100966.69;;;10.84;72.37
64853;BME280;56050;55.558;-4.644;2023-02-18T01:18:17;100965.13;;;10.83;72.20
64853;BME280;56050;55.558;-4.644;2023-02-18T01:20:44;100964.38;;;10.86;72.47
64853;BME280;56050;55.558;-4.644;2023-02-18T01:23:10;100961.69;;;10.90;72.54
64853;BME280;56050;55.558;-4.644;2023-02-18T01:25:36;100954.41;;;10.90;73.06
64853;BME280;56050;55.558;-4.644;2023-02-18T01:28:02;100958.25;;;10.93;73.37
64853;BME280;56050;55.558;-4.644;2023-02-18T01:30:28;100939.78;;;10.98;73.84
64853;BME280;56050;55.558;-4.644;2023-02-18T01:32:55;100935.16;;;10.99;73.55
64853;BME280;56050;55.558;-4.644;2023-02-18T01:35:21;100932.84;;;11.01;73.57
64853;BME280;56050;55.558;-4.644;2023-02-18T01:37:48;100933.59;;;11.05;73.67
64853;BME280;56050;55.558;-4.644;2023-02-18T01:40:17;100931.69;;;11.05;73.95
64853;BME280;56050;55.558;-4.644;2023-02-18T01:42:44;100940.16;;;11.07;73.81
64853;BME280;56050;55.558;-4.644;2023-02-18T01:50:35;100937.84;;;11.09;74.12
64853;BME280;56050;55.558;-4.644;2023-02-18T01:53:01;100929.75;;;11.13;74.53
64853;BME280;56050;55.558;-4.644;2023-02-18T01:55:27;100937.84;;;11.13;74.50
64853;BME280;56050;55.558;-4.644;2023-02-18T01:57:53;100950.56;;;11.16;75.00
64853;BME280;56050;55.558;-4.644;2023-02-18T02:00:19;100955.22;;;11.15;74.82
64853;BME280;56050;55.558;-4.644;2023-02-18T02:02:50;100952.13;;;11.17;74.89
64853;BME280;56050;55.558;-4.644;2023-02-18T02:05:17;100963.69;;;11.17;74.92
64853;BME280;56050;55.558;-4.644;2023-02-18T02:07:45;100963.69;;;11.17;75.15
64853;BME280;56050;55.558;-4.644;2023-02-18T02:10:12;100976.75;;;11.19;75.04
64853;BME280;56050;55.558;-4.644;2023-02-18T02:13:02;100975.97;;;11.18;75.39
64853;BME280;56050;55.558;-4.644;2023-02-18T02:15:45;100983.72;;;11.20;75.28
64853;BME280;56050;55.558;-4.644;2023-02-18T02:24:10;100990.66;;;11.28;76.27
64853;BME280;56050;55.558;-4.644;2023-02-18T02:35:05;100989.09;;;11.27;76.80
64853;BME280;56050;55.558;-4.644;2023-02-18T02:37:44;100989.09;;;11.27;77.02
64853;BME280;56050;55.558;-4.644;2023-02-18T02:46:21;100980.25;;;11.30;77.28
64853;BME280;56050;55.558;-4.644;2023-02-18T02:48:57;100987.19;;;11.31;77.36
64853;BME280;56050;55.558;-4.644;2023-02-18T02:51:40;100992.56;;;11.31;77.16
64853;BME280;56050;55.558;-4.644;2023-02-18T02:54:16;100991.44;;;11.32;77.10
64853;BME280;56050;55.558;-4.644;2023-02-18T02:56:42;100992.19;;;11.33;77.34
64853;BME280;56050;55.558;-4.644;2023-02-18T02:59:45;101002.22;;;11.32;77.41
64853;BME280;56050;55.558;-4.644;2023-02-18T03:07:48;100993.34;;;11.35;77.75
64853;BME280;56050;55.558;-4.644;2023-02-18T03:16:22;100995.66;;;11.37;77.71
64853;BME280;56050;55.558;-4.644;2023-02-18T03:24:49;100996.81;;;11.36;77.52
64853;BME280;56050;55.558;-4.644;2023-02-18T03:29:44;101009.94;;;11.37;77.10
64853;BME280;56050;55.558;-4.644;2023-02-18T03:32:12;100993.34;;;11.39;76.95
64853;BME280;56050;55.558;-4.644;2023-02-18T03:34:43;100990.28;;;11.40;76.57
64853;BME280;56050;55.558;-4.644;2023-02-18T03:37:11;100989.88;;;11.42;76.40
64853;BME280;56050;55.558;-4.644;2023-02-18T03:39:40;100980.66;;;11.43;75.97
64853;BME280;56050;55.558;-4.644;2023-02-18T03:42:07;100988.34;;;11.44;75.43
64853;BME280;56050;55.558;-4.644;2023-02-18T03:44:32;100991.44;;;11.43;75.30
64853;BME280;56050;55.558;-4.644;2023-02-18T03:46:58;100995.28;;;11.45;75.20
64853;BME280;56050;55.558;-4.644;2023-02-18T03:49:24;100998.00;;;11.45;74.77
64853;BME280;56050;55.558;-4.644;2023-02-18T03:51:49;100991.41;;;11.46;74.66
64853;BME280;56050;55.558;-4.644;2023-02-18T03:54:15;100999.91;;;11.48;74.51
64853;BME280;56050;55.558;-4.644;2023-02-18T03:56:41;100992.97;;;11.47;74.19
64853;BME280;56050;55.558;-4.644;2023-02-18T03:59:06;101015.31;;;11.48;73.83
64853;BME280;56050;55.558;-4.644;2023-02-18T04:01:32;101002.97;;;11.47;73.67
64853;BME280;56050;55.558;-4.644;2023-02-18T04:03:57;101003.75;;;11.47;73.69
64853;BME280;56050;55.558;-4.644;2023-02-18T04:06:23;101002.22;;;11.46;73.68
64853;BME280;56050;55.558;-4.644;2023-02-18T04:08:49;100998.34;;;11.44;73.36
64853;BME280;56050;55.558;-4.644;2023-02-18T04:11:15;100999.53;;;11.39;73.35
64853;BME280;56050;55.558;-4.644;2023-02-18T04:13:41;101017.63;;;11.39;72.90
64853;BME280;56050;55.558;-4.644;2023-02-18T04:16:06;101027.28;;;11.40;73.02
64853;BME280;56050;55.558;-4.644;2023-02-18T04:18:32;101022.66;;;11.40;73.02
64853;BME280;56050;55.558;-4.644;2023-02-18T04:20:57;101022.25;;;11.42;72.89
64853;BME280;56050;55.558;-4.644;2023-02-18T04:23:23;101021.47;;;11.41;72.74
64853;BME280;56050;55.558;-4.644;2023-02-18T04:25:48;101033.03;;;11.42;72.76
64853;BME280;56050;55.558;-4.644;2023-02-18T04:28:14;101033.44;;;11.44;72.75
64853;BME280;56050;55.558;-4.644;2023-02-18T04:30:42;101031.50;;;11.44;73.00
64853;BME280;56050;55.558;-4.644;2023-02-18T04:33:07;101039.97;;;11.46;72.68
64853;BME280;56050;55.558;-4.644;2023-02-18T04:35:32;101039.22;;;11.46;72.77
64853;BME280;56050;55.558;-4.644;2023-02-18T04:37:58;101049.25;;;11.45;72.68
64853;BME280;56050;55.558;-4.644;2023-02-18T04:40:23;101047.31;;;11.46;72.47
64853;BME280;56050;55.558;-4.644;2023-02-18T04:42:58;101055.78;;;11.44;72.70
64853;BME280;56050;55.558;-4.644;2023-02-18T04:45:24;101056.19;;;11.43;72.57
64853;BME280;56050;55.558;-4.644;2023-02-18T04:47:50;101051.56;;;11.43;72.51
64853;BME280;56050;55.558;-4.644;2023-02-18T04:50:15;101058.88;;;11.43;72.23
64853;BME280;56050;55.558;-4.644;2023-02-18T04:52:41;101075.06;;;11.43;72.20
64853;BME280;56050;55.558;-4.644;2023-02-18T04:55:06;101062.72;;;11.42;71.62
64853;BME280;56050;55.558;-4.644;2023-02-18T04:57:32;101066.19;;;11.39;71.59
64853;BME280;56050;55.558;-4.644;2023-02-18T04:59:58;101069.25;;;11.41;71.42
64853;BME280;56050;55.558;-4.644;2023-02-18T05:02:23;101076.22;;;11.42;71.44
64853;BME280;56050;55.558;-4.644;2023-02-18T05:04:49;101082.75;;;11.44;71.59
64853;BME280;56050;55.558;-4.644;2023-02-18T05:07:14;101086.63;;;11.43;71.51
64853;BME280;56050;55.558;-4.644;2023-02-18T05:09:40;101090.84;;;11.44;71.49
64853;BME280;56050;55.558;-4.644;2023-02-18T05:12:06;101087.00;;;11.45;71.37
64853;BME280;56050;55.558;-4.644;2023-02-18T05:14:32;101092.41;;;11.45;71.18
64853;BME280;56050;55.558;-4.644;2023-02-18T05:16:57;101097.81;;;11.45;71.18
64853;BME280;56050;55.558;-4.644;2023-02-18T05:19:22;101095.09;;;11.45;71.15
64853;BME280;56050;55.558;-4.644;2023-02-18T05:21:48;101105.50;;;11.47;70.88
64853;BME280;56050;55.558;-4.644;2023-02-18T05:24:13;101101.66;;;11.44;71.05
64853;BME280;56050;55.558;-4.644;2023-02-18T05:26:39;101093.56;;;11.44;71.02
64853;BME280;56050;55.558;-4.644;2023-02-18T05:29:04;101103.19;;;11.42;71.00
64853;BME280;56050;55.558;-4.644;2023-02-18T05:31:30;101107.81;;;11.41;71.05
64853;BME280;56050;55.558;-4.644;2023-02-18T05:33:56;101104.34;;;11.37;71.00
64853;BME280;56050;55.558;-4.644;2023-02-18T05:36:21;101104.34;;;11.37;70.91
64853;BME280;56050;55.558;-4.644;2023-02-18T05:38:47;101104.69;;;11.36;71.04
64853;BME280;56050;55.558;-4.644;2023-02-18T05:41:12;101110.50;;;11.34;70.97
64853;BME280;56050;55.558;-4.644;2023-02-18T05:43:38;101098.94;;;11.34;71.00
64853;BME280;56050;55.558;-4.644;2023-02-18T05:46:22;101097.00;;;11.34;71.03
64853;BME280;56050;55.558;-4.644;2023-02-18T05:48:48;101093.16;;;11.32;71.00
64853;BME280;56050;55.558;-4.644;2023-02-18T05:51:14;101095.44;;;11.33;71.12
64853;BME280;56050;55.558;-4.644;2023-02-18T05:53:39;101095.44;;;11.33;70.96
64853;BME280;56050;55.558;-4.644;2023-02-18T05:56:05;101089.28;;;11.33;71.10
64853;BME280;56050;55.558;-4.644;2023-02-18T05:58:31;101091.63;;;11.34;71.16
64853;BME280;56050;55.558;-4.644;2023-02-18T06:00:56;101087.34;;;11.33;71.33
64853;BME280;56050;55.558;-4.644;2023-02-18T06:03:22;101094.69;;;11.33;71.33
64853;BME280;56050;55.558;-4.644;2023-02-18T06:05:51;101093.94;;;11.32;71.35
64853;BME280;56050;55.558;-4.644;2023-02-18T06:08:16;101078.50;;;11.33;71.12
64853;BME280;56050;55.558;-4.644;2023-02-18T06:10:44;101088.91;;;11.31;71.05
64853;BME280;56050;55.558;-4.644;2023-02-18T06:13:09;101084.66;;;11.30;71.04
64853;BME280;56050;55.558;-4.644;2023-02-18T06:15:35;101085.03;;;11.28;71.06
64853;BME280;56050;55.558;-4.644;2023-02-18T06:18:00;101092.34;;;11.28;70.94
64853;BME280;56050;55.558;-4.644;2023-02-18T06:20:25;101088.91;;;11.24;70.78
64853;BME280;56050;55.558;-4.644;2023-02-18T06:22:51;101095.44;;;11.23;70.83
64853;BME280;56050;55.558;-4.644;2023-02-18T06:25:16;101099.25;;;11.21;70.75
64853;BME280;56050;55.558;-4.644;2023-02-18T06:27:42;101098.13;;;11.23;70.57
64853;BME280;56050;55.558;-4.644;2023-02-18T06:30:07;101104.66;;;11.21;70.39
64853;BME280;56050;55.558;-4.644;2023-02-18T06:32:33;101103.91;;;11.21;70.33
64853;BME280;56050;55.558;-4.644;2023-02-18T06:34:59;101117.78;;;11.23;70.56
64853;BME280;56050;55.558;-4.644;2023-02-18T06:37:24;101129.34;;;11.24;70.41
64853;BME280;56050;55.558;-4.644;2023-02-18T06:39:49;101128.56;;;11.23;70.48
64853;BME280;56050;55.558;-4.644;2023-02-18T06:42:15;101123.16;;;11.23;70.55
64853;BME280;56050;55.558;-4.644;2023-02-18T06:44:40;101147.44;;;11.23;70.47
64853;BME280;56050;55.558;-4.644;2023-02-18T06:47:06;101152.44;;;11.25;70.45
64853;BME280;56050;55.558;-4.644;2023-02-18T06:49:31;101151.66;;;11.24;70.56
64853;BME280;56050;55.558;-4.644;2023-02-18T06:51:57;101149.75;;;11.25;70.14
64853;BME280;56050;55.558;-4.644;2023-02-18T06:54:22;101160.94;;;11.27;70.20
64853;BME280;56050;55.558;-4.644;2023-02-18T06:56:49;101159.00;;;11.27;69.98
64853;BME280;56050;55.558;-4.644;2023-02-18T06:59:15;101172.13;;;11.29;70.04
64853;BME280;56050;55.558;-4.644;2023-02-18T07:01:40;101169.44;;;11.29;70.29
64853;BME280;56050;55.558;-4.644;2023-02-18T07:04:06;101167.91;;;11.31;70.15
64853;BME280;56050;55.558;-4.644;2023-02-18T07:06:31;101168.66;;;11.32;70.02
64853;BME280;56050;55.558;-4.644;2023-02-18T07:08:56;101179.44;;;11.35;70.19
64853;BME280;56050;55.558;-4.644;2023-02-18T07:11:22;101178.34;;;11.40;69.94
64853;BME280;56050;55.558;-4.644;2023-02-18T07:13:47;101174.88;;;11.43;69.80
64853;BME280;56050;55.558;-4.644;2023-02-18T07:16:13;101174.47;;;11.44;70.01
64853;BME280;56050;55.558;-4.644;2023-02-18T07:18:38;101185.69;;;11.50;69.68
64853;BME280;56050;55.558;-4.644;2023-02-18T07:21:04;101179.91;;;11.51;69.83
64853;BME280;56050;55.558;-4.644;2023-02-18T07:23:29;101176.81;;;11.53;69.37
64853;BME280;56050;55.558;-4.644;2023-02-18T07:26:09;101186.47;;;11.54;69.59
64853;BME280;56050;55.558;-4.644;2023-02-18T07:28:35;101193.78;;;11.53;69.46
64853;BME280;56050;55.558;-4.644;2023-02-18T07:31:01;101191.09;;;11.53;69.43
64853;BME280;56050;55.558;-4.644;2023-02-18T07:33:27;101205.34;;;11.57;69.45
64853;BME280;56050;55.558;-4.644;2023-02-18T07:35:57;101215.00;;;11.58;69.25
64853;BME280;56050;55.558;-4.644;2023-02-18T07:38:24;101225.41;;;11.60;69.36
64853;BME280;56050;55.558;-4.644;2023-02-18T07:40:51;101232.34;;;11.57;69.26
64853;BME280;56050;55.558;-4.644;2023-02-18T07:43:17;101228.13;;;11.56;69.49
64853;BME280;56050;55.558;-4.644;2023-02-18T07:45:42;101239.69;;;11.57;69.35
64853;BME280;56050;55.558;-4.644;2023-02-18T07:48:08;101250.88;;;11.59;69.62
64853;BME280;56050;55.558;-4.644;2023-02-18T07:50:33;101252.81;;;11.62;69.37
64853;BME280;56050;55.558;-4.644;2023-02-18T07:53:03;101261.31;;;11.67;69.26
64853;BME280;56050;55.558;-4.644;2023-02-18T07:55:29;101267.50;;;11.71;69.33
64853;BME280;56050;55.558;-4.644;2023-02-18T07:58:17;101275.22;;;11.76;69.22
64853;BME280;56050;55.558;-4.644;2023-02-18T08:00:43;101273.34;;;11.81;69.14
64853;BME280;56050;55.558;-4.644;2023-02-18T08:03:09;101272.97;;;11.86;69.05
64853;BME280;56050;55.558;-4.644;2023-02-18T08:05:34;101278.38;;;11.89;68.75
64853;BME280;56050;55.558;-4.644;2023-02-18T08:08:00;101281.84;;;11.93;68.53
64853;BME280;56050;55.558;-4.644;2023-02-18T08:10:25;101293.06;;;11.95;68.45
64853;BME280;56050;55.558;-4.644;2023-02-18T08:12:51;101291.50;;;11.94;68.42
64853;BME280;56050;55.558;-4.644;2023-02-18T08:15:16;101291.88;;;11.96;68.50
64853;BME280;56050;55.558;-4.644;2023-02-18T08:17:42;101284.19;;;11.95;68.32
64853;BME280;56050;55.558;-4.644;2023-02-18T08:20:07;101285.31;;;11.94;68.21
64853;BME280;56050;55.558;-4.644;2023-02-18T08:22:34;101293.03;;;11.92;68.27
64853;BME280;56050;55.558;-4.644;2023-02-18T08:24:59;101298.06;;;11.90;68.41
64853;BME280;56050;55.558;-4.644;2023-02-18T08:27:25;101301.13;;;11.92;68.10
64853;BME280;56050;55.558;-4.644;2023-02-18T08:29:51;101291.13;;;11.92;68.10
64853;BME280;56050;55.558;-4.644;2023-02-18T08:32:16;101293.44;;;11.90;68.08
64853;BME280;56050;55.558;-4.644;2023-02-18T08:34:42;101283.41;;;11.87;67.80
64853;BME280;56050;55.558;-4.644;2023-02-18T08:37:07;101282.22;;;11.85;67.96
64853;BME280;56050;55.558;-4.644;2023-02-18T08:39:34;101286.06;;;11.84;67.91
64853;BME280;56050;55.558;-4.644;2023-02-18T08:41:59;101288.38;;;11.82;68.11
64853;BME280;56050;55.558;-4.644;2023-02-18T08:44:26;101280.28;;;11.82;68.18
64853;BME280;56050;55.558;-4.644;2023-02-18T08:46:51;101288.38;;;11.82;68.24
64853;BME280;56050;55.558;-4.644;2023-02-18T08:49:17;101293.03;;;11.85;68.21
64853;BME280;56050;55.558;-4.644;2023-02-18T08:51:47;101302.28;;;11.87;68.10
64853;BME280;56050;55.558;-4.644;2023-02-18T08:54:13;101304.97;;;11.91;68.16
64853;BME280;56050;55.558;-4.644;2023-02-18T08:56:38;101311.97;;;11.95;67.97
64853;BME280;56050;55.558;-4.644;2023-02-18T08:59:04;101317.00;;;12.00;67.67
64853;BME280;56050;55.558;-4.644;2023-02-18T09:01:30;101337.84;;;12.03;67.89
64853;BME280;56050;55.558;-4.644;2023-02-18T09:03:55;101344.00;;;12.07;67.53
64853;BME280;56050;55.558;-4.644;2023-02-18T09:06:21;101340.19;;;12.12;67.71
64853;BME280;56050;55.558;-4.644;2023-02-18T09:08:46;101343.28;;;12.17;67.63
64853;BME280;56050;55.558;-4.644;2023-02-18T09:11:11;101336.34;;;12.20;67.49
64853;BME280;56050;55.558;-4.644;2023-02-18T09:13:37;101342.16;;;12.25;67.57
64853;BME280;56050;55.558;-4.644;2023-02-18T09:16:06;101347.53;;;12.29;67.54
64853;BME280;56050;55.558;-4.644;2023-02-18T09:18:32;101341.38;;;12.32;67.42
64853;BME280;56050;55.558;-4.644;2023-02-18T09:21:04;101351.06;;;12.36;67.24
64853;BME280;56050;55.558;-4.644;2023-02-18T09:23:32;101359.53;;;12.38;67.37
64853;BME280;56050;55.558;-4.644;2023-02-18T09:25:57;101361.84;;;12.40;67.47
64853;BME280;56050;55.558;-4.644;2023-02-18T09:28:23;101359.56;;;12.42;67.54
64853;BME280;56050;55.558;-4.644;2023-02-18T09:30:49;101352.22;;;12.46;67.80
64853;BME280;56050;55.558;-4.644;2023-02-18T09:33:16;101352.63;;;12.52;67.64
64853;BME280;56050;55.558;-4.644;2023-02-18T09:35:43;101362.66;;;12.51;67.74
64853;BME280;56050;55.558;-4.644;2023-02-18T09:38:12;101364.59;;;12.54;67.89
64853;BME280;56050;55.558;-4.644;2023-02-18T09:40:41;101367.69;;;12.53;67.96
64853;BME280;56050;55.558;-4.644;2023-02-18T09:45:49;101366.53;;;12.50;68.02
64853;BME280;56050;55.558;-4.644;2023-02-18T09:48:15;101367.66;;;12.46;67.94
64853;BME280;56050;55.558;-4.644;2023-02-18T09:50:41;101366.88;;;12.42;68.20
64853;BME280;56050;55.558;-4.644;2023-02-18T09:53:10;101368.78;;;12.37;68.52
64853;BME280;56050;55.558;-4.644;2023-02-18T09:55:38;101375.72;;;12.35;68.79
64853;BME280;56050;55.558;-4.644;2023-02-18T09:58:14;101380.38;;;12.31;68.62
64853;BME280;56050;55.558;-4.644;2023-02-18T10:00:43;101379.56;;;12.27;68.78
64853;BME280;56050;55.558;-4.644;2023-02-18T10:03:20;101396.53;;;12.24;69.09
64853;BME280;56050;55.558;-4.644;2023-02-18T10:06:35;101394.22;;;12.19;68.92
64853;BME280;56050;55.558;-4.644;2023-02-18T10:08:46;101398.44;;;12.16;69.42
64853;BME280;56050;55.558;-4.644;2023-02-18T10:11:16;101418.09;;;12.13;69.55
64853;BME280;56050;55.558;-4.644;2023-02-18T10:13:43;101413.09;;;12.12;69.56
64853;BME280;56050;55.558;-4.644;2023-02-18T10:16:14;101411.16;;;12.09;69.62
64853;BME280;56050;55.558;-4.644;2023-02-18T10:18:42;101412.69;;;12.06;69.88
64853;BME280;56050;55.558;-4.644;2023-02-18T10:21:13;101413.84;;;12.05;69.81
64853;BME280;56050;55.558;-4.644;2023-02-18T10:23:43;101413.84;;;12.05;69.84
64853;BME280;56050;55.558;-4.644;2023-02-18T10:26:16;101412.69;;;12.10;70.00
64853;BME280;56050;55.558;-4.644;2023-02-18T10:28:42;101415.00;;;12.08;70.02
64853;BME280;56050;55.558;-4.644;2023-02-18T10:31:10;101402.63;;;12.03;70.05
64853;BME280;56050;55.558;-4.644;2023-02-18T10:36:22;101397.97;;;11.97;70.70
64853;BME280;56050;55.558;-4.644;2023-02-18T10:41:52;101383.34;;;11.98;70.88
64853;BME280;56050;55.558;-4.644;2023-02-18T10:49:56;101396.06;;;12.01;71.28
64853;BME280;56050;55.558;-4.644;2023-02-18T10:52:25;101402.63;;;12.03;71.22
64853;BME280;56050;55.558;-4.644;2023-02-18T10:57:23;101420.06;;;12.16;70.95
64853;BME280;56050;55.558;-4.644;2023-02-18T11:02:43;101431.69;;;12.31;70.79
64853;BME280;56050;55.558;-4.644;2023-02-18T11:05:25;101436.72;;;12.36;70.66
64853;BME280;56050;55.558;-4.644;2023-02-18T11:07:52;101439.44;;;12.43;70.53
64853;BME280;56050;55.558;-4.644;2023-02-18T11:10:28;101449.53;;;12.50;70.32
64853;BME280;56050;55.558;-4.644;2023-02-18T11:13:01;101454.16;;;12.53;70.34
64853;BME280;56050;55.558;-4.644;2023-02-18T11:15:28;101457.66;;;12.53;70.21
64853;BME280;56050;55.558;-4.644;2023-02-18T11:17:56;101457.66;;;12.53;70.24
64853;BME280;56050;55.558;-4.644;2023-02-18T11:23:18;101453.78;;;12.51;70.20
64853;BME280;56050;55.558;-4.644;2023-02-18T11:26:01;101445.25;;;12.49;70.40
64853;BME280;56050;55.558;-4.644;2023-02-18T11:28:48;101437.94;;;12.49;70.49
64853;BME280;56050;55.558;-4.644;2023-02-18T11:31:23;101429.06;;;12.52;70.39
64853;BME280;56050;55.558;-4.644;2023-02-18T11:33:52;101424.06;;;12.58;70.66
64853;BME280;56050;55.558;-4.644;2023-02-18T11:38:51;101426.75;;;12.58;70.57
64853;BME280;56050;55.558;-4.644;2023-02-18T11:41:41;101429.88;;;12.56;70.75
64853;BME280;56050;55.558;-4.644;2023-02-18T11:44:30;101431.03;;;12.59;70.49
64853;BME280;56050;55.558;-4.644;2023-02-18T11:47:08;101429.88;;;12.56;70.58
64853;BME280;56050;55.558;-4.644;2023-02-18T11:50:02;101425.22;;;12.53;70.63
64853;BME280;56050;55.558;-4.644;2023-02-18T11:52:33;101437.56;;;12.54;70.54
64853;BME280;56050;55.558;-4.644;2023-02-18T11:55:21;101434.84;;;12.54;70.77
64853;BME280;56050;55.558;-4.644;2023-02-18T11:57:59;101441.84;;;12.59;70.60
64853;BME280;56050;55.558;-4.644;2023-02-18T12:03:03;101455.75;;;12.68;70.25
64853;BME280;56050;55.558;-4.644;2023-02-18T12:05:32;101459.22;;;12.68;70.39
64853;BME280;56050;55.558;-4.644;2023-02-18T12:08:12;101462.69;;;12.65;70.41
64853;BME280;56050;55.558;-4.644;2023-02-18T12:11:33;101473.91;;;12.64;70.31
64853;BME280;56050;55.558;-4.644;2023-02-18T12:13:53;101464.63;;;12.61;70.48
64853;BME280;56050;55.558;-4.644;2023-02-18T12:19:26;101463.06;;;12.53;70.33
64853;BME280;56050;55.558;-4.644;2023-02-18T12:22:10;101461.50;;;12.52;70.52
64853;BME280;56050;55.558;-4.644;2023-02-18T12:27:42;101460.75;;;12.55;70.37
64853;BME280;56050;55.558;-4.644;2023-02-18T12:33:05;101460.75;;;12.55;70.47
64853;BME280;56050;55.558;-4.644;2023-02-18T12:35:38;101449.13;;;12.51;70.35
64853;BME280;56050;55.558;-4.644;2023-02-18T12:41:22;101449.13;;;12.44;70.50
64853;BME280;56050;55.558;-4.644;2023-02-18T12:44:22;101461.84;;;12.36;70.57
64853;BME280;56050;55.558;-4.644;2023-02-18T12:55:31;101447.56;;;12.43;70.78
64853;BME280;56050;55.558;-4.644;2023-02-18T13:09:46;101448.34;;;12.47;70.73
64853;BME280;56050;55.558;-4.644;2023-02-18T13:12:27;101451.84;;;12.48;70.64
64853;BME280;56050;55.558;-4.644;2023-02-18T13:14:59;101436.38;;;12.45;70.72
64853;BME280;56050;55.558;-4.644;2023-02-18T13:17:30;101436.75;;;12.43;70.97
64853;BME280;56050;55.558;-4.644;2023-02-18T13:20:02;101444.47;;;12.41;70.85
64853;BME280;56050;55.558;-4.644;2023-02-18T13:22:29;101445.63;;;12.40;70.77
64853;BME280;56050;55.558;-4.644;2023-02-18T13:24:57;101441.00;;;12.37;70.81
64853;BME280;56050;55.558;-4.644;2023-02-18T13:27:41;101434.78;;;12.33;71.09
64853;BME280;56050;55.558;-4.644;2023-02-18T13:30:30;101438.28;;;12.33;70.98
64853;BME280;56050;55.558;-4.644;2023-02-18T13:38:59;101445.22;;;12.38;70.96
64853;BME280;56050;55.558;-4.644;2023-02-18T13:41:26;101441.00;;;12.41;71.16
64853;BME280;56050;55.558;-4.644;2023-02-18T13:43:51;101439.44;;;12.43;71.15
64853;BME280;56050;55.558;-4.644;2023-02-18T13:46:22;101436.00;;;12.43;71.14
64853;BME280;56050;55.558;-4.644;2023-02-18T13:49:10;101432.09;;;12.40;71.20
64853;BME280;56050;55.558;-4.644;2023-02-18T13:51:45;101438.28;;;12.41;70.97
64853;BME280;56050;55.558;-4.644;2023-02-18T13:56:47;101445.63;;;12.36;71.01
64853;BME280;56050;55.558;-4.644;2023-02-18T14:04:56;101427.41;;;12.26;71.28
64853;BME280;56050;55.558;-4.644;2023-02-18T14:10:25;101435.50;;;12.19;71.29
64853;BME280;56050;55.558;-4.644;2023-02-18T14:26:09;101438.16;;;12.12;71.39
64853;BME280;56050;55.558;-4.644;2023-02-18T14:29:05;101424.25;;;12.10;71.52
64853;BME280;56050;55.558;-4.644;2023-02-18T14:31:41;101419.63;;;12.07;71.49
64853;BME280;56050;55.558;-4.644;2023-02-18T14:36:51;101425.81;;;12.08;71.53
64853;BME280;56050;55.558;-4.644;2023-02-18T14:50:32;101394.16;;;12.08;71.50
64853;BME280;56050;55.558;-4.644;2023-02-18T14:53:03;101388.78;;;12.08;71.53
64853;BME280;56050;55.558;-4.644;2023-02-18T14:55:32;101391.06;;;12.10;71.41
64853;BME280;56050;55.558;-4.644;2023-02-18T14:58:33;101386.47;;;12.14;71.49
64853;BME280;56050;55.558;-4.644;2023-02-18T15:00:50;101384.16;;;12.16;71.40
64853;BME280;56050;55.558;-4.644;2023-02-18T15:03:18;101391.13;;;12.17;71.45
64853;BME280;56050;55.558;-4.644;2023-02-18T15:05:45;101391.50;;;12.19;71.25
64853;BME280;56050;55.558;-4.644;2023-02-18T15:08:19;101397.28;;;12.21;71.35
64853;BME280;56050;55.558;-4.644;2023-02-18T15:10:57;101387.28;;;12.21;71.23
64853;BME280;56050;55.558;-4.644;2023-02-18T15:13:41;101388.81;;;12.22;71.23
64853;BME280;56050;55.558;-4.644;2023-02-18T15:16:13;101383.81;;;12.24;71.19
64853;BME280;56050;55.558;-4.644;2023-02-18T15:18:42;101383.06;;;12.27;71.04